Ana Sayfa
METAR-TAF:

METAR-TAF

Havaalanları :

Antananarivo, Madagaskar

Enlem: 18-48S, Boylam: 047-29E, yükseklik: 1279 m

Güncel hava durumu gözlemi

Rapor saat 13:30 UTC de 16 dakika önce yapıldı.
Rüzgar doğu/güneydoğudan 11 kt
Sıcaklık 20°C
Nem 46%
Basınç 1026 hPa
Görüş mesafesi 10 km veya daha fazla
2300 ft yükseklikte az bulutlu

METAR: FMMI 161330Z 11011KT 9999 FEW023 20/08 Q1026 NOSIG

Saat: 16:46 (13:46 UTC)

Tahmin

Rapor saat 11:00 UTC de 2 saat ve 46 dakika önce yapıldı.
Ayın 16'si saat 12 UTC'den ayın 17'si saat 18 UTC'ye kadar geçerli Tahmin
Rüzgar doğudan 12 kt
Görüş mesafesi 10 km veya daha fazla
2300 ft yükseklikte az bulutlu
Dönüşüyor
ayın 16'si saat 18 UTC'den ayın 16'si saat 21 UTC'ye kadar
Rüzgar güney/güneydoğudan 5 kt
Dönüşüyor
ayın 17'si saat 06 UTC'den ayın 17'si saat 09 UTC'ye kadar
Rüzgar doğudan 10 kt

TAF: FMMI 161100Z 1612/1718 10012KT 9999 FEW023 BECMG 1618/1621 16005KT BECMG 1706/1709 10010KT

4.000'den fazla havaalanı için hava durumu gözlemleri ve tahminleri (METAR ve TAF raporları).

Kullanılabilir istasyonlar harita üzerinde sarı ve kırmızı noktalarla gösterilir.

İstasyonun adını görmek için fareyi noktanın üzerinde gezdirin.

Sonrasında hava gözlem ve tahminlerini görmek için tıklayın.

Haritayı değiştirmek için: yaklaştırmak için siyah artı işaretli yeşil düğmeye ve uzaklaştırmak için de eksi işaretli düğmeye hızla tıklayın; bitişik haritalar için yeşil okları kullanın.


METAR-TAF: